sensor_id;sensor_type;location;lat;lon;timestamp;temperature;humidity
29431;DHT22;16404;49.902;10.074;2022-07-29T05:32:53;22.30;41.00
29431;DHT22;16404;49.902;10.074;2022-07-29T05:35:38;22.50;41.00
29431;DHT22;16404;49.902;10.074;2022-07-29T05:38:23;22.60;40.80
29431;DHT22;16404;49.902;10.074;2022-07-29T05:41:07;22.60;40.20
29431;DHT22;16404;49.902;10.074;2022-07-29T05:43:52;22.70;40.20
29431;DHT22;16404;49.902;10.074;2022-07-29T05:46:36;22.80;40.40
29431;DHT22;16404;49.902;10.074;2022-07-29T05:49:21;22.80;39.90
29431;DHT22;16404;49.902;10.074;2022-07-29T05:52:06;22.90;39.90
29431;DHT22;16404;49.902;10.074;2022-07-29T05:54:50;22.90;40.10
29431;DHT22;16404;49.902;10.074;2022-07-29T05:57:35;22.90;39.80
29431;DHT22;16404;49.902;10.074;2022-07-29T06:00:20;23.00;40.00
29431;DHT22;16404;49.902;10.074;2022-07-29T06:03:04;23.00;40.00
29431;DHT22;16404;49.902;10.074;2022-07-29T06:05:49;23.00;39.70
29431;DHT22;16404;49.902;10.074;2022-07-29T06:08:34;23.00;40.10
29431;DHT22;16404;49.902;10.074;2022-07-29T06:11:18;23.10;40.60
29431;DHT22;16404;49.902;10.074;2022-07-29T06:14:03;23.10;40.40
29431;DHT22;16404;49.902;10.074;2022-07-29T06:16:47;23.30;40.90
29431;DHT22;16404;49.902;10.074;2022-07-29T06:19:34;23.40;40.90
29431;DHT22;16404;49.902;10.074;2022-07-29T06:22:18;23.60;40.70
29431;DHT22;16404;49.902;10.074;2022-07-29T06:25:03;23.80;40.10
29431;DHT22;16404;49.902;10.074;2022-07-29T06:27:49;24.00;39.70
29431;DHT22;16404;49.902;10.074;2022-07-29T06:30:33;24.30;39.50
29431;DHT22;16404;49.902;10.074;2022-07-29T06:33:19;24.60;39.00
29431;DHT22;16404;49.902;10.074;2022-07-29T06:36:04;25.00;38.80
29431;DHT22;16404;49.902;10.074;2022-07-29T06:38:50;25.20;37.80
29431;DHT22;16404;49.902;10.074;2022-07-29T06:41:34;25.50;37.40
29431;DHT22;16404;49.902;10.074;2022-07-29T06:44:26;25.80;36.40
29431;DHT22;16404;49.902;10.074;2022-07-29T06:47:11;26.10;36.00
29431;DHT22;16404;49.902;10.074;2022-07-29T06:49:55;26.40;35.40
29431;DHT22;16404;49.902;10.074;2022-07-29T06:52:40;26.60;34.90
29431;DHT22;16404;49.902;10.074;2022-07-29T06:55:25;26.90;34.50
29431;DHT22;16404;49.902;10.074;2022-07-29T06:58:09;27.20;34.00
29431;DHT22;16404;49.902;10.074;2022-07-29T07:00:56;27.50;33.70
29431;DHT22;16404;49.902;10.074;2022-07-29T07:03:40;27.70;33.20
29431;DHT22;16404;49.902;10.074;2022-07-29T07:06:25;27.90;32.80
29431;DHT22;16404;49.902;10.074;2022-07-29T07:09:10;28.10;32.70
29431;DHT22;16404;49.902;10.074;2022-07-29T07:11:55;28.30;32.50
29431;DHT22;16404;49.902;10.074;2022-07-29T07:14:39;28.50;32.50
29431;DHT22;16404;49.902;10.074;2022-07-29T07:17:25;28.80;32.50
29431;DHT22;16404;49.902;10.074;2022-07-29T07:20:09;28.90;32.00
29431;DHT22;16404;49.902;10.074;2022-07-29T07:22:54;29.10;31.60
29431;DHT22;16404;49.902;10.074;2022-07-29T07:25:38;29.30;30.90
29431;DHT22;16404;49.902;10.074;2022-07-29T07:28:23;29.60;30.60
29431;DHT22;16404;49.902;10.074;2022-07-29T07:31:08;29.80;30.20
29431;DHT22;16404;49.902;10.074;2022-07-29T07:33:53;30.00;29.90
29431;DHT22;16404;49.902;10.074;2022-07-29T07:36:38;30.20;30.00
29431;DHT22;16404;49.902;10.074;2022-07-29T07:39:23;30.30;29.80
29431;DHT22;16404;49.902;10.074;2022-07-29T07:42:07;30.40;29.80
29431;DHT22;16404;49.902;10.074;2022-07-29T07:44:52;30.40;29.90
29431;DHT22;16404;49.902;10.074;2022-07-29T07:47:37;30.50;29.70
29431;DHT22;16404;49.902;10.074;2022-07-29T07:50:22;30.60;29.70
29431;DHT22;16404;49.902;10.074;2022-07-29T07:53:06;30.80;29.70
29431;DHT22;16404;49.902;10.074;2022-07-29T07:55:51;30.90;29.50
29431;DHT22;16404;49.902;10.074;2022-07-29T07:58:36;31.00;29.40
29431;DHT22;16404;49.902;10.074;2022-07-29T08:01:20;31.20;29.40
29431;DHT22;16404;49.902;10.074;2022-07-29T08:04:07;31.40;29.20
29431;DHT22;16404;49.902;10.074;2022-07-29T08:06:51;31.60;29.10
29431;DHT22;16404;49.902;10.074;2022-07-29T08:09:38;32.00;29.30
29431;DHT22;16404;49.902;10.074;2022-07-29T08:12:22;32.20;28.40
29431;DHT22;16404;49.902;10.074;2022-07-29T08:15:07;32.50;27.90
29431;DHT22;16404;49.902;10.074;2022-07-29T08:17:52;32.50;27.70
29431;DHT22;16404;49.902;10.074;2022-07-29T08:20:37;32.50;27.90
29431;DHT22;16404;49.902;10.074;2022-07-29T08:23:23;32.40;27.60
29431;DHT22;16404;49.902;10.074;2022-07-29T08:26:08;32.60;27.80
29431;DHT22;16404;49.902;10.074;2022-07-29T08:28:54;32.80;28.10
29431;DHT22;16404;49.902;10.074;2022-07-29T08:31:40;32.80;27.80
29431;DHT22;16404;49.902;10.074;2022-07-29T08:34:25;32.70;27.60
29431;DHT22;16404;49.902;10.074;2022-07-29T08:37:10;32.70;27.50
29431;DHT22;16404;49.902;10.074;2022-07-29T08:39:54;32.80;27.70
29431;DHT22;16404;49.902;10.074;2022-07-29T08:42:40;32.90;27.20
29431;DHT22;16404;49.902;10.074;2022-07-29T08:45:24;33.00;27.30
29431;DHT22;16404;49.902;10.074;2022-07-29T08:48:10;33.20;27.50
29431;DHT22;16404;49.902;10.074;2022-07-29T08:50:56;33.20;27.20
29431;DHT22;16404;49.902;10.074;2022-07-29T08:53:42;33.20;27.40
29431;DHT22;16404;49.902;10.074;2022-07-29T08:56:27;33.20;27.60
29431;DHT22;16404;49.902;10.074;2022-07-29T08:59:13;33.20;27.70
29431;DHT22;16404;49.902;10.074;2022-07-29T09:01:57;33.20;28.00
29431;DHT22;16404;49.902;10.074;2022-07-29T09:04:44;33.20;28.30
29431;DHT22;16404;49.902;10.074;2022-07-29T09:07:29;33.30;28.10
29431;DHT22;16404;49.902;10.074;2022-07-29T09:10:14;33.40;28.20
29431;DHT22;16404;49.902;10.074;2022-07-29T09:12:58;33.60;28.10
29431;DHT22;16404;49.902;10.074;2022-07-29T09:15:43;33.80;28.00
29431;DHT22;16404;49.902;10.074;2022-07-29T09:18:40;33.90;27.70
29431;DHT22;16404;49.902;10.074;2022-07-29T09:21:24;34.00;27.70
29431;DHT22;16404;49.902;10.074;2022-07-29T09:24:54;34.10;27.40
29431;DHT22;16404;49.902;10.074;2022-07-29T09:27:39;34.00;27.30
29431;DHT22;16404;49.902;10.074;2022-07-29T09:30:23;34.10;28.00
29431;DHT22;16404;49.902;10.074;2022-07-29T09:33:10;34.00;27.50
29431;DHT22;16404;49.902;10.074;2022-07-29T09:36:05;33.90;27.40
29431;DHT22;16404;49.902;10.074;2022-07-29T09:39:02;33.90;27.40
29431;DHT22;16404;49.902;10.074;2022-07-29T09:41:54;33.90;27.70
29431;DHT22;16404;49.902;10.074;2022-07-29T09:44:47;34.00;27.90
29431;DHT22;16404;49.902;10.074;2022-07-29T09:47:46;34.10;27.20
29431;DHT22;16404;49.902;10.074;2022-07-29T09:50:39;34.30;27.20
29431;DHT22;16404;49.902;10.074;2022-07-29T09:53:35;34.50;26.80
29431;DHT22;16404;49.902;10.074;2022-07-29T09:56:20;34.60;27.00
29431;DHT22;16404;49.902;10.074;2022-07-29T09:59:08;34.70;26.70
29431;DHT22;16404;49.902;10.074;2022-07-29T10:01:52;34.60;26.60
29431;DHT22;16404;49.902;10.074;2022-07-29T10:04:41;34.70;26.70
29431;DHT22;16404;49.902;10.074;2022-07-29T10:07:27;34.60;26.70
29431;DHT22;16404;49.902;10.074;2022-07-29T10:10:31;34.60;26.90
29431;DHT22;16404;49.902;10.074;2022-07-29T10:13:16;34.60;27.50
29431;DHT22;16404;49.902;10.074;2022-07-29T10:16:00;34.50;26.90
29431;DHT22;16404;49.902;10.074;2022-07-29T10:18:45;34.40;27.10
29431;DHT22;16404;49.902;10.074;2022-07-29T10:21:31;34.30;27.30
29431;DHT22;16404;49.902;10.074;2022-07-29T10:24:16;34.00;28.00
29431;DHT22;16404;49.902;10.074;2022-07-29T10:27:02;33.70;28.80
29431;DHT22;16404;49.902;10.074;2022-07-29T10:29:47;33.30;29.10
29431;DHT22;16404;49.902;10.074;2022-07-29T10:35:40;32.60;29.60
29431;DHT22;16404;49.902;10.074;2022-07-29T10:38:40;32.30;29.90
29431;DHT22;16404;49.902;10.074;2022-07-29T10:44:33;31.90;31.00
29431;DHT22;16404;49.902;10.074;2022-07-29T10:50:06;31.70;31.90
29431;DHT22;16404;49.902;10.074;2022-07-29T10:52:53;31.70;32.30
29431;DHT22;16404;49.902;10.074;2022-07-29T10:55:39;31.70;32.60
29431;DHT22;16404;49.902;10.074;2022-07-29T10:58:28;31.70;32.50
29431;DHT22;16404;49.902;10.074;2022-07-29T11:01:29;31.80;32.60
29431;DHT22;16404;49.902;10.074;2022-07-29T11:04:13;31.80;32.50
29431;DHT22;16404;49.902;10.074;2022-07-29T11:12:55;31.90;32.50
29431;DHT22;16404;49.902;10.074;2022-07-29T11:15:57;32.00;32.50
29431;DHT22;16404;49.902;10.074;2022-07-29T11:21:57;32.00;32.50
29431;DHT22;16404;49.902;10.074;2022-07-29T11:24:41;32.00;32.20
29431;DHT22;16404;49.902;10.074;2022-07-29T11:27:30;32.10;32.40
29431;DHT22;16404;49.902;10.074;2022-07-29T11:30:50;32.00;32.60
29431;DHT22;16404;49.902;10.074;2022-07-29T11:33:35;32.00;32.80
29431;DHT22;16404;49.902;10.074;2022-07-29T11:36:20;32.20;32.70
29431;DHT22;16404;49.902;10.074;2022-07-29T11:39:25;32.30;32.30
29431;DHT22;16404;49.902;10.074;2022-07-29T11:47:55;32.50;32.20
29431;DHT22;16404;49.902;10.074;2022-07-29T11:50:42;32.60;31.80
29431;DHT22;16404;49.902;10.074;2022-07-29T11:53:27;32.60;32.10
29431;DHT22;16404;49.902;10.074;2022-07-29T11:56:13;32.70;31.60
29431;DHT22;16404;49.902;10.074;2022-07-29T11:59:06;32.70;31.20
29431;DHT22;16404;49.902;10.074;2022-07-29T12:01:58;32.70;30.90
29431;DHT22;16404;49.902;10.074;2022-07-29T12:04:54;32.70;30.00
29431;DHT22;16404;49.902;10.074;2022-07-29T12:07:40;32.70;30.30
29431;DHT22;16404;49.902;10.074;2022-07-29T12:10:30;32.70;30.50
29431;DHT22;16404;49.902;10.074;2022-07-29T12:13:17;32.70;30.60
29431;DHT22;16404;49.902;10.074;2022-07-29T12:16:01;32.70;30.70
29431;DHT22;16404;49.902;10.074;2022-07-29T12:19:15;32.70;30.20
29431;DHT22;16404;49.902;10.074;2022-07-29T12:22:00;32.80;30.40
29431;DHT22;16404;49.902;10.074;2022-07-29T12:24:44;32.80;30.40
29431;DHT22;16404;49.902;10.074;2022-07-29T12:27:29;32.80;30.50
29431;DHT22;16404;49.902;10.074;2022-07-29T12:30:15;32.80;30.80
29431;DHT22;16404;49.902;10.074;2022-07-29T12:33:00;32.80;30.50
29431;DHT22;16404;49.902;10.074;2022-07-29T12:35:48;32.80;30.70
29431;DHT22;16404;49.902;10.074;2022-07-29T12:38:33;32.90;31.00
29431;DHT22;16404;49.902;10.074;2022-07-29T12:41:19;32.90;30.70
29431;DHT22;16404;49.902;10.074;2022-07-29T12:44:03;32.90;30.80
29431;DHT22;16404;49.902;10.074;2022-07-29T12:47:02;32.90;30.70
29431;DHT22;16404;49.902;10.074;2022-07-29T12:49:47;33.00;30.20
29431;DHT22;16404;49.902;10.074;2022-07-29T12:52:34;33.10;29.70
29431;DHT22;16404;49.902;10.074;2022-07-29T12:55:41;33.10;29.40
29431;DHT22;16404;49.902;10.074;2022-07-29T12:58:37;33.10;29.90
29431;DHT22;16404;49.902;10.074;2022-07-29T13:01:21;33.10;30.00
29431;DHT22;16404;49.902;10.074;2022-07-29T13:04:06;33.10;29.90
29431;DHT22;16404;49.902;10.074;2022-07-29T13:07:01;33.20;29.90
29431;DHT22;16404;49.902;10.074;2022-07-29T13:09:45;33.20;29.70
29431;DHT22;16404;49.902;10.074;2022-07-29T13:12:30;33.30;29.60
29431;DHT22;16404;49.902;10.074;2022-07-29T13:15:15;33.30;29.50
29431;DHT22;16404;49.902;10.074;2022-07-29T13:18:00;33.40;29.60
29431;DHT22;16404;49.902;10.074;2022-07-29T13:20:45;33.50;29.50
29431;DHT22;16404;49.902;10.074;2022-07-29T13:23:29;33.50;29.50
29431;DHT22;16404;49.902;10.074;2022-07-29T13:26:14;33.60;29.60
29431;DHT22;16404;49.902;10.074;2022-07-29T13:29:02;33.60;29.80
29431;DHT22;16404;49.902;10.074;2022-07-29T13:31:47;33.60;29.70
29431;DHT22;16404;49.902;10.074;2022-07-29T13:34:31;33.70;29.70
29431;DHT22;16404;49.902;10.074;2022-07-29T13:37:18;33.70;29.50
29431;DHT22;16404;49.902;10.074;2022-07-29T13:40:03;33.60;29.60
29431;DHT22;16404;49.902;10.074;2022-07-29T13:42:48;33.50;30.00
29431;DHT22;16404;49.902;10.074;2022-07-29T13:45:32;33.40;29.30
29431;DHT22;16404;49.902;10.074;2022-07-29T13:48:17;33.40;29.70
29431;DHT22;16404;49.902;10.074;2022-07-29T13:51:01;33.40;29.70
29431;DHT22;16404;49.902;10.074;2022-07-29T13:53:46;33.30;30.30
29431;DHT22;16404;49.902;10.074;2022-07-29T13:56:31;33.30;30.40
29431;DHT22;16404;49.902;10.074;2022-07-29T13:59:15;33.30;32.20
29431;DHT22;16404;49.902;10.074;2022-07-29T14:02:00;33.10;34.10
29431;DHT22;16404;49.902;10.074;2022-07-29T14:04:45;33.00;36.00
29431;DHT22;16404;49.902;10.074;2022-07-29T14:07:29;32.80;37.00
29431;DHT22;16404;49.902;10.074;2022-07-29T14:10:14;32.50;38.30
29431;DHT22;16404;49.902;10.074;2022-07-29T14:12:58;32.30;40.20
29431;DHT22;16404;49.902;10.074;2022-07-29T14:15:43;32.20;41.40
29431;DHT22;16404;49.902;10.074;2022-07-29T14:18:27;32.00;41.10
29431;DHT22;16404;49.902;10.074;2022-07-29T14:21:12;31.90;42.10
29431;DHT22;16404;49.902;10.074;2022-07-29T14:23:57;31.70;42.10
29431;DHT22;16404;49.902;10.074;2022-07-29T14:26:41;31.60;43.30
29431;DHT22;16404;49.902;10.074;2022-07-29T14:29:26;31.50;42.90
29431;DHT22;16404;49.902;10.074;2022-07-29T14:32:11;31.30;42.90
29431;DHT22;16404;49.902;10.074;2022-07-29T14:34:55;31.00;43.20
29431;DHT22;16404;49.902;10.074;2022-07-29T14:37:40;30.70;43.30
29431;DHT22;16404;49.902;10.074;2022-07-29T14:40:24;30.40;44.00
29431;DHT22;16404;49.902;10.074;2022-07-29T14:43:09;30.00;44.60
29431;DHT22;16404;49.902;10.074;2022-07-29T14:45:54;29.90;44.30
29431;DHT22;16404;49.902;10.074;2022-07-29T14:48:38;29.70;45.20
29431;DHT22;16404;49.902;10.074;2022-07-29T14:51:23;29.50;46.00
29431;DHT22;16404;49.902;10.074;2022-07-29T14:54:08;29.40;46.20
29431;DHT22;16404;49.902;10.074;2022-07-29T14:56:52;29.20;46.00
29431;DHT22;16404;49.902;10.074;2022-07-29T14:59:40;29.00;46.30
29431;DHT22;16404;49.902;10.074;2022-07-29T15:02:25;28.80;46.40
29431;DHT22;16404;49.902;10.074;2022-07-29T15:05:10;28.70;46.50
29431;DHT22;16404;49.902;10.074;2022-07-29T15:07:54;28.70;46.20
29431;DHT22;16404;49.902;10.074;2022-07-29T15:10:39;28.50;46.20
29431;DHT22;16404;49.902;10.074;2022-07-29T15:13:23;28.40;46.20
29431;DHT22;16404;49.902;10.074;2022-07-29T15:16:08;28.40;46.60
29431;DHT22;16404;49.902;10.074;2022-07-29T15:18:53;28.40;46.80
29431;DHT22;16404;49.902;10.074;2022-07-29T15:21:38;28.40;46.50
29431;DHT22;16404;49.902;10.074;2022-07-29T15:24:22;28.40;46.60
29431;DHT22;16404;49.902;10.074;2022-07-29T15:27:07;28.40;46.20
29431;DHT22;16404;49.902;10.074;2022-07-29T15:29:51;28.30;46.30
29431;DHT22;16404;49.902;10.074;2022-07-29T15:32:36;28.20;46.30
29431;DHT22;16404;49.902;10.074;2022-07-29T15:35:21;28.10;46.50
29431;DHT22;16404;49.902;10.074;2022-07-29T15:38:05;28.10;46.50
29431;DHT22;16404;49.902;10.074;2022-07-29T15:40:50;28.10;46.50
29431;DHT22;16404;49.902;10.074;2022-07-29T15:43:34;28.00;46.40
29431;DHT22;16404;49.902;10.074;2022-07-29T15:46:19;27.90;46.40
29431;DHT22;16404;49.902;10.074;2022-07-29T15:49:23;27.70;46.20
29431;DHT22;16404;49.902;10.074;2022-07-29T15:52:15;27.50;46.90
29431;DHT22;16404;49.902;10.074;2022-07-29T15:55:00;27.30;47.30
29431;DHT22;16404;49.902;10.074;2022-07-29T15:57:45;27.20;47.80
29431;DHT22;16404;49.902;10.074;2022-07-29T16:00:29;27.10;48.20
29431;DHT22;16404;49.902;10.074;2022-07-29T16:03:14;26.90;48.40
29431;DHT22;16404;49.902;10.074;2022-07-29T16:05:59;26.70;48.80
29431;DHT22;16404;49.902;10.074;2022-07-29T16:08:44;26.50;49.20
29431;DHT22;16404;49.902;10.074;2022-07-29T16:11:29;26.30;49.70
29431;DHT22;16404;49.902;10.074;2022-07-29T16:14:14;26.10;50.10
29431;DHT22;16404;49.902;10.074;2022-07-29T16:16:58;26.10;50.60
29431;DHT22;16404;49.902;10.074;2022-07-29T16:19:46;25.90;51.30
29431;DHT22;16404;49.902;10.074;2022-07-29T16:22:31;25.90;52.70
29431;DHT22;16404;49.902;10.074;2022-07-29T16:25:16;26.00;52.20
29431;DHT22;16404;49.902;10.074;2022-07-29T16:28:01;26.10;51.90
29431;DHT22;16404;49.902;10.074;2022-07-29T16:30:45;26.00;50.80
29431;DHT22;16404;49.902;10.074;2022-07-29T16:33:30;26.00;50.40
29431;DHT22;16404;49.902;10.074;2022-07-29T16:36:15;25.80;50.60
29431;DHT22;16404;49.902;10.074;2022-07-29T16:38:59;25.80;50.70
29431;DHT22;16404;49.902;10.074;2022-07-29T16:41:43;25.80;50.30
29431;DHT22;16404;49.902;10.074;2022-07-29T16:44:28;25.80;49.80
29431;DHT22;16404;49.902;10.074;2022-07-29T16:47:13;25.70;49.20
29431;DHT22;16404;49.902;10.074;2022-07-29T16:49:57;25.60;48.70
29431;DHT22;16404;49.902;10.074;2022-07-29T16:52:42;25.60;48.80
29431;DHT22;16404;49.902;10.074;2022-07-29T16:55:27;25.60;48.60
29431;DHT22;16404;49.902;10.074;2022-07-29T16:58:11;25.60;48.30
29431;DHT22;16404;49.902;10.074;2022-07-29T17:00:56;25.80;48.30
29431;DHT22;16404;49.902;10.074;2022-07-29T17:03:40;25.90;48.20
29431;DHT22;16404;49.902;10.074;2022-07-29T17:06:45;26.10;48.20
29431;DHT22;16404;49.902;10.074;2022-07-29T17:09:29;26.10;49.00
29431;DHT22;16404;49.902;10.074;2022-07-29T17:12:14;26.20;49.50
29431;DHT22;16404;49.902;10.074;2022-07-29T17:14:59;26.20;50.20
29431;DHT22;16404;49.902;10.074;2022-07-29T17:17:44;26.20;51.30
29431;DHT22;16404;49.902;10.074;2022-07-29T17:20:30;26.10;51.30
29431;DHT22;16404;49.902;10.074;2022-07-29T17:23:16;26.10;51.40
29431;DHT22;16404;49.902;10.074;2022-07-29T17:26:01;26.10;51.40
29431;DHT22;16404;49.902;10.074;2022-07-29T17:28:46;26.10;51.60
29431;DHT22;16404;49.902;10.074;2022-07-29T17:31:32;26.10;51.80
29431;DHT22;16404;49.902;10.074;2022-07-29T17:34:16;26.10;51.70
29431;DHT22;16404;49.902;10.074;2022-07-29T17:37:01;26.10;51.50
29431;DHT22;16404;49.902;10.074;2022-07-29T17:39:45;26.10;51.40
29431;DHT22;16404;49.902;10.074;2022-07-29T17:42:30;26.10;51.60
29431;DHT22;16404;49.902;10.074;2022-07-29T17:45:14;26.10;51.40
29431;DHT22;16404;49.902;10.074;2022-07-29T17:47:59;26.00;51.60
29431;DHT22;16404;49.902;10.074;2022-07-29T17:50:43;26.10;52.40
29431;DHT22;16404;49.902;10.074;2022-07-29T17:53:28;26.10;52.80
29431;DHT22;16404;49.902;10.074;2022-07-29T17:56:13;26.10;53.10
29431;DHT22;16404;49.902;10.074;2022-07-29T17:58:57;26.10;54.30
29431;DHT22;16404;49.902;10.074;2022-07-29T18:01:49;26.10;53.90
29431;DHT22;16404;49.902;10.074;2022-07-29T18:04:34;26.10;53.60
29431;DHT22;16404;49.902;10.074;2022-07-29T18:07:18;26.20;53.50
29431;DHT22;16404;49.902;10.074;2022-07-29T18:10:04;26.20;53.60
29431;DHT22;16404;49.902;10.074;2022-07-29T18:12:48;26.30;53.60
29431;DHT22;16404;49.902;10.074;2022-07-29T18:15:33;26.30;53.00
29431;DHT22;16404;49.902;10.074;2022-07-29T18:18:17;26.20;53.30
29431;DHT22;16404;49.902;10.074;2022-07-29T18:21:03;26.20;53.90
29431;DHT22;16404;49.902;10.074;2022-07-29T18:23:47;26.10;54.20
29431;DHT22;16404;49.902;10.074;2022-07-29T18:26:33;25.90;54.20
29431;DHT22;16404;49.902;10.074;2022-07-29T18:29:18;25.90;54.30
29431;DHT22;16404;49.902;10.074;2022-07-29T18:32:03;25.90;54.20
29431;DHT22;16404;49.902;10.074;2022-07-29T18:34:48;25.90;54.20
29431;DHT22;16404;49.902;10.074;2022-07-29T18:37:33;25.80;54.50
29431;DHT22;16404;49.902;10.074;2022-07-29T18:40:18;25.80;54.60
29431;DHT22;16404;49.902;10.074;2022-07-29T18:43:05;25.80;54.60
29431;DHT22;16404;49.902;10.074;2022-07-29T18:45:50;25.80;54.50
29431;DHT22;16404;49.902;10.074;2022-07-29T18:48:34;25.80;54.50
29431;DHT22;16404;49.902;10.074;2022-07-29T18:51:20;25.80;54.70
29431;DHT22;16404;49.902;10.074;2022-07-29T18:54:05;25.80;54.90
29431;DHT22;16404;49.902;10.074;2022-07-29T18:56:49;25.70;54.70
29431;DHT22;16404;49.902;10.074;2022-07-29T18:59:34;25.70;54.50
29431;DHT22;16404;49.902;10.074;2022-07-29T19:02:19;25.60;54.20
29431;DHT22;16404;49.902;10.074;2022-07-29T19:05:05;25.40;54.80
29431;DHT22;16404;49.902;10.074;2022-07-29T19:07:50;25.30;55.40
29431;DHT22;16404;49.902;10.074;2022-07-29T19:10:35;25.20;55.60
29431;DHT22;16404;49.902;10.074;2022-07-29T19:13:20;25.20;55.70
29431;DHT22;16404;49.902;10.074;2022-07-29T19:16:05;25.10;56.10
29431;DHT22;16404;49.902;10.074;2022-07-29T19:18:49;25.00;56.40
29431;DHT22;16404;49.902;10.074;2022-07-29T19:21:34;25.00;57.00
29431;DHT22;16404;49.902;10.074;2022-07-29T19:24:19;25.00;57.70
29431;DHT22;16404;49.902;10.074;2022-07-29T19:27:03;25.00;57.80
29431;DHT22;16404;49.902;10.074;2022-07-29T19:29:48;25.20;58.00
